Terminal Aerodrome Forecast
Issued by NWS

Home | Current Version | Previous Version | Graphics & Text | Print | Product List | Glossary On
Versions: 1 2 3 4 5 6 7 8 9 10 11 12 13 14 15
980
FTUS43 KICT 172337
TAFSLN
TAF
KSLN 172337Z 1800/1824 19008KT P6SM SCT250
     FM180200 31005KT P6SM SCT250
     FM180900 34025G33KT P6SM VCSH BKN020
     FM181400 33024G32KT P6SM BKN045
     FM182300 32015G23KT P6SM SKC=

USA.gov is the U.S. government's official web portal to all federal, state and local government web resources and services.